Time;durP1;ratioP1;P1;durP2;ratioP2;P2;SDS_P1;SDS_P2;PMS_P1;PMS_P2;Temp;Humidity;BMP_temperature;BMP_pressure;BME280_temperature;BME280_humidity;BME280_pressure;Samples;Min_cycle;Max_cycle;Signal;HPM_P1;HPM_P2
2022/06/14 00:01:34;;;;;;;3.67;2.70;;;8.50;99.90;;;;;;5035847;28;20509;-69
2022/06/14 00:04:00;;;;;;;3.15;2.85;;;8.50;99.90;;;;;;5053701;28;20136;-76
2022/06/14 00:06:28;;;;;;;3.58;3.28;;;8.50;99.90;;;;;;5053490;28;20052;-76
2022/06/14 00:08:54;;;;;;;6.70;3.75;;;8.60;99.90;;;;;;5053724;28;20394;-76
2022/06/14 00:11:23;;;;;;;16.67;5.25;;;8.50;99.90;;;;;;5053489;28;20017;-72
2022/06/14 00:13:50;;;;;;;20.80;6.28;;;8.50;99.90;;;;;;5053587;28;20040;-76
2022/06/14 00:16:16;;;;;;;6.22;4.38;;;8.40;99.90;;;;;;5053489;28;20489;-75
2022/06/14 00:18:42;;;;;;;5.88;4.18;;;8.40;99.90;;;;;;5035722;28;20021;-76
2022/06/14 00:21:08;;;;;;;6.97;4.60;;;8.40;99.90;;;;;;5035643;28;20110;-69
2022/06/14 00:23:33;;;;;;;4.40;3.85;;;8.40;99.90;;;;;;5053213;28;20037;-69
2022/06/14 00:26:00;;;;;;;4.85;3.90;;;8.40;99.90;;;;;;5071497;28;20017;-68
2022/06/14 00:28:28;;;;;;;5.80;4.03;;;8.50;99.90;;;;;;5053533;28;20036;-75
2022/06/14 00:31:00;;;;;;;3.70;3.20;;;8.50;99.90;;;;;;5035520;28;20037;-69
2022/06/14 00:33:25;;;;;;;5.35;3.63;;;8.60;99.90;;;;;;5053234;28;20118;-76
2022/06/14 00:36:04;;;;;;;5.05;4.15;;;8.60;99.90;;;;;;5053222;28;20059;-76
2022/06/14 00:38:30;;;;;;;6.68;3.88;;;8.60;99.90;;;;;;5053253;28;20479;-68
2022/06/14 00:40:58;;;;;;;5.93;4.05;;;8.70;99.90;;;;;;5053296;28;20386;-76
2022/06/14 00:43:24;;;;;;;3.70;3.17;;;8.70;99.90;;;;;;5053075;28;20170;-76
2022/06/14 00:45:51;;;;;;;4.45;3.33;;;8.80;99.90;;;;;;5035249;28;20505;-76
2022/06/14 00:48:19;;;;;;;3.42;3.13;;;8.80;99.90;;;;;;5053155;28;20052;-69
2022/06/14 00:51:06;;;;;;;4.78;3.05;;;8.80;99.90;;;;;;5053171;28;20021;-69
2022/06/14 00:53:42;;;;;;;13.70;8.48;;;8.70;99.90;;;;;;5035253;28;20085;-69
2022/06/14 00:56:17;;;;;;;6.85;4.88;;;8.80;99.90;;;;;;5053176;28;20021;-75
2022/06/14 00:58:53;;;;;;;10.23;5.53;;;8.80;99.90;;;;;;5053052;28;20425;-69
2022/06/14 01:01:23;;;;;;;5.65;4.10;;;8.70;99.90;;;;;;5052943;28;20028;-69
2022/06/14 01:03:57;;;;;;;4.95;3.67;;;8.70;99.90;;;;;;5052833;28;20120;-68
2022/06/14 01:06:34;;;;;;;4.22;3.28;;;8.70;99.90;;;;;;5053067;28;20049;-69
2022/06/14 01:09:06;;;;;;;3.08;2.78;;;8.70;99.90;;;;;;5034892;28;20036;-69
2022/06/14 01:12:12;;;;;;;4.15;3.17;;;8.60;99.90;;;;;;5035009;28;20113;-76
2022/06/14 01:14:44;;;;;;;5.13;3.10;;;8.60;99.90;;;;;;5024095;28;20041;-69
2022/06/14 01:17:12;;;;;;;4.20;3.10;;;8.60;99.90;;;;;;5052985;28;20024;-69
2022/06/14 01:19:39;;;;;;;2.95;2.65;;;8.60;99.90;;;;;;5055488;28;20052;-69
2022/06/14 01:22:07;;;;;;;3.20;2.90;;;8.60;99.90;;;;;;5039215;28;20155;-75
2022/06/14 01:24:35;;;;;;;3.50;3.20;;;8.60;99.90;;;;;;5063276;28;20044;-69
2022/06/14 01:27:04;;;;;;;4.63;3.13;;;8.50;99.90;;;;;;5058964;28;20021;-69
2022/06/14 01:29:32;;;;;;;6.47;3.78;;;8.50;99.90;;;;;;5047757;28;20037;-76
2022/06/14 01:32:01;;;;;;;7.35;4.68;;;8.40;99.90;;;;;;5056665;28;20493;-75
2022/06/14 01:34:30;;;;;;;6.60;4.20;;;8.30;99.90;;;;;;5038578;28;20068;-76
2022/06/14 01:36:57;;;;;;;4.18;3.40;;;8.30;99.90;;;;;;5056769;28;20067;-76
2022/06/14 01:39:22;;;;;;;3.67;3.38;;;8.30;99.90;;;;;;5056471;28;20067;-76
2022/06/14 01:42:06;;;;;;;4.00;3.50;;;8.20;99.90;;;;;;5038692;28;20017;-75
2022/06/14 01:44:45;;;;;;;11.30;8.02;;;8.20;99.90;;;;;;5056441;28;20057;-69
2022/06/14 01:47:23;;;;;;;7.43;5.35;;;8.20;99.90;;;;;;5056596;28;20104;-69
2022/06/14 01:53:14;;;;;;;9.02;4.88;;;8.20;99.90;;;;;;5056366;28;20099;-76
2022/06/14 01:55:58;;;;;;;6.65;4.60;;;8.30;99.90;;;;;;5056264;28;20025;-69
2022/06/14 01:59:07;;;;;;;8.95;4.78;;;8.30;99.90;;;;;;5038301;28;20092;-69
2022/06/14 02:01:44;;;;;;;17.20;5.45;;;8.40;99.90;;;;;;5038303;28;20021;-76
2022/06/14 02:04:38;;;;;;;19.70;5.95;;;8.40;99.90;;;;;;5056074;28;20479;-76
2022/06/14 02:07:09;;;;;;;14.48;5.82;;;8.50;99.90;;;;;;5056275;28;20032;-68
2022/06/14 02:10:26;;;;;;;26.50;6.65;;;8.50;99.90;;;;;;5055839;28;20479;-69
2022/06/14 02:13:32;;;;;;;32.92;7.03;;;8.50;99.90;;;;;;5039003;28;20445;-76
2022/06/14 02:16:17;;;;;;;15.65;6.63;;;8.60;99.90;;;;;;5027669;28;20386;-69
2022/06/14 02:18:53;;;;;;;46.20;8.50;;;8.70;99.90;;;;;;5037875;28;20112;-76
2022/06/14 02:21:25;;;;;;;25.35;6.50;;;8.70;99.90;;;;;;5055773;28;20040;-68
2022/06/14 02:24:12;;;;;;;16.90;6.97;;;8.70;99.90;;;;;;5056761;28;20032;-69
2022/06/14 02:26:45;;;;;;;32.60;7.13;;;8.70;99.90;;;;;;5075915;28;20031;-69
2022/06/14 02:29:21;;;;;;;43.03;8.02;;;8.80;99.90;;;;;;5048861;28;20017;-69
2022/06/14 02:31:56;;;;;;;35.33;9.13;;;8.80;99.90;;;;;;5055614;28;20047;-69
2022/06/14 02:34:42;;;;;;;23.65;8.38;;;8.80;99.90;;;;;;5037670;28;20032;-75
2022/06/14 02:37:17;;;;;;;19.27;6.75;;;8.80;99.90;;;;;;5055462;28;20099;-69
2022/06/14 02:40:08;;;;;;;20.52;7.55;;;8.80;99.90;;;;;;5055520;28;20028;-76
2022/06/14 02:42:44;;;;;;;11.95;6.43;;;8.80;99.90;;;;;;5055456;28;20040;-76
2022/06/14 02:45:34;;;;;;;25.20;8.20;;;8.80;99.90;;;;;;5055247;28;20111;-69
2022/06/14 02:48:08;;;;;;;19.65;6.40;;;8.80;99.90;;;;;;5055603;28;20166;-69
2022/06/14 02:50:46;;;;;;;24.38;6.30;;;8.80;99.90;;;;;;5037336;28;20403;-76
2022/06/14 02:53:15;;;;;;;32.33;6.82;;;8.70;99.90;;;;;;5055325;28;20036;-69
2022/06/14 02:55:51;;;;;;;34.47;7.47;;;8.70;99.90;;;;;;5037197;28;20021;-76
2022/06/14 02:58:23;;;;;;;19.02;7.05;;;8.60;99.90;;;;;;5037304;28;20021;-76
2022/06/14 03:01:16;;;;;;;28.45;7.65;;;8.50;99.90;;;;;;5037047;28;20171;-76
2022/06/14 03:03:59;;;;;;;;;;;8.50;99.90;;;;;;5055305;28;20093;-68
2022/06/14 03:06:34;;;;;;;15.68;7.25;;;8.50;99.90;;;;;;5055223;28;19940;-76
2022/06/14 03:09:14;;;;;;;22.50;7.93;;;8.50;99.90;;;;;;5055103;28;20021;-76
2022/06/14 03:12:17;;;;;;;14.10;7.97;;;8.40;99.90;;;;;;5037154;28;20025;-76
2022/06/14 03:15:13;;;;;;;13.30;7.50;;;8.40;99.90;;;;;;5054691;28;20383;-69
2022/06/14 03:17:46;;;;;;;9.80;6.25;;;8.40;99.90;;;;;;5054877;28;20051;-69
2022/06/14 03:20:18;;;;;;;21.42;7.70;;;8.40;99.90;;;;;;5054727;28;20463;-76
2022/06/14 03:23:02;;;;;;;15.13;7.80;;;8.40;99.90;;;;;;5054647;28;20041;-69
2022/06/14 03:25:34;;;;;;;10.20;6.90;;;8.30;99.90;;;;;;5069271;28;20027;-76
2022/06/14 03:28:38;;;;;;;12.00;7.57;;;8.30;99.90;;;;;;5074643;28;20025;-76
2022/06/14 03:31:20;;;;;;;14.88;6.63;;;8.30;99.90;;;;;;5048287;28;20072;-76
2022/06/14 03:33:53;;;;;;;11.00;6.82;;;8.30;99.90;;;;;;5054686;28;20025;-69
2022/06/14 03:36:18;;;;;;;21.13;7.47;;;8.30;99.90;;;;;;5054421;28;20479;-75
2022/06/14 03:39:14;;;;;;;30.33;8.50;;;8.30;99.90;;;;;;5053159;28;20025;-76
2022/06/14 03:41:43;;;;;;;17.20;8.45;;;8.30;99.90;;;;;;5053539;28;20024;-75
2022/06/14 03:44:10;;;;;;;12.07;7.15;;;8.40;99.90;;;;;;5036301;28;20028;-69
2022/06/14 03:46:41;;;;;;;12.07;6.75;;;8.40;99.90;;;;;;5053957;28;20021;-69
2022/06/14 03:49:11;;;;;;;11.63;8.65;;;8.40;99.90;;;;;;5054072;28;20083;-69
2022/06/14 03:51:49;;;;;;;10.05;7.03;;;8.50;99.90;;;;;;5054260;28;20027;-69
2022/06/14 03:54:45;;;;;;;13.18;6.53;;;8.80;99.90;;;;;;5036046;28;20398;-68
2022/06/14 03:57:19;;;;;;;10.70;7.68;;;9.10;99.90;;;;;;5036150;28;20035;-76
2022/06/14 04:00:00;;;;;;;10.93;6.95;;;9.40;99.90;;;;;;5053885;28;20025;-76
2022/06/14 04:02:55;;;;;;;9.88;7.68;;;9.70;99.90;;;;;;5036005;28;20025;-76
2022/06/14 04:05:39;;;;;;;10.57;7.57;;;10.00;99.90;;;;;;5035688;28;20056;-76
2022/06/14 04:08:04;;;;;;;10.80;7.50;;;10.20;99.90;;;;;;5053921;28;20386;-76
2022/06/14 04:10:48;;;;;;;6.88;5.53;;;10.30;99.90;;;;;;5035842;28;20029;-69
2022/06/14 04:13:36;;;;;;;6.60;5.28;;;10.20;99.90;;;;;;5053659;28;20025;-69
2022/06/14 04:16:19;;;;;;;8.05;5.68;;;10.40;99.90;;;;;;5053511;28;20066;-75
2022/06/14 04:19:13;;;;;;;6.40;5.32;;;10.50;99.90;;;;;;5053799;28;20029;-75
2022/06/14 04:21:59;;;;;;;6.75;5.93;;;10.60;99.90;;;;;;5052884;28;20494;-69
2022/06/14 04:24:34;;;;;;;9.88;7.63;;;11.00;99.90;;;;;;5042105;28;20028;-75
2022/06/14 04:27:21;;;;;;;9.73;8.30;;;11.10;99.90;;;;;;5073391;28;20020;-69
2022/06/14 04:30:01;;;;;;;9.07;7.65;;;11.20;99.90;;;;;;5040938;28;20021;-76
2022/06/14 04:32:39;;;;;;;9.07;7.70;;;11.30;99.90;;;;;;5035578;28;20390;-75
2022/06/14 04:35:31;;;;;;;8.38;7.07;;;11.40;99.90;;;;;;5053319;28;20044;-69
2022/06/14 04:38:13;;;;;;;12.32;8.23;;;11.40;99.90;;;;;;5035389;28;20024;-76
2022/06/14 04:40:48;;;;;;;11.85;7.75;;;11.50;99.90;;;;;;5053216;28;20031;-76
2022/06/14 04:43:22;;;;;;;9.70;8.07;;;11.70;99.90;;;;;;5053179;28;20394;-69
2022/06/14 04:45:59;;;;;;;10.38;8.63;;;11.80;99.90;;;;;;5035115;28;20043;-76
2022/06/14 04:48:36;;;;;;;10.68;8.57;;;11.80;99.90;;;;;;5053185;28;20013;-76
2022/06/14 04:51:27;;;;;;;11.60;8.70;;;11.90;99.90;;;;;;5035137;28;20020;-76
2022/06/14 04:54:11;;;;;;;13.45;10.15;;;11.90;99.90;;;;;;5051963;28;20049;-75
2022/06/14 04:57:10;;;;;;;12.40;8.48;;;12.00;99.90;;;;;;5034964;28;20033;-75
2022/06/14 04:59:48;;;;;;;12.75;9.52;;;12.00;99.90;;;;;;5052728;28;20494;-75
2022/06/14 05:02:19;;;;;;;9.73;8.23;;;12.10;99.90;;;;;;5052737;28;20017;-75
2022/06/14 05:05:04;;;;;;;13.20;9.07;;;12.20;99.90;;;;;;5034808;28;20039;-76
2022/06/14 05:07:48;;;;;;;11.82;8.27;;;12.20;99.90;;;;;;5052812;28;20021;-76
2022/06/14 05:10:23;;;;;;;11.70;7.75;;;12.30;99.90;;;;;;5054265;28;20024;-75
2022/06/14 05:13:05;;;;;;;12.13;9.05;;;12.40;99.90;;;;;;5067912;28;20013;-75
2022/06/14 05:15:46;;;;;;;14.05;7.65;;;12.50;99.90;;;;;;5049155;28;20445;-76
2022/06/14 05:18:25;;;;;;;11.10;7.53;;;12.60;99.90;;;;;;5070134;28;20024;-75
2022/06/14 05:21:17;;;;;;;11.50;7.07;;;12.50;99.90;;;;;;5069896;28;20032;-76
2022/06/14 05:23:49;;;;;;;10.63;6.53;;;12.60;99.90;;;;;;5059321;28;20568;-76
2022/06/14 05:26:17;;;;;;;9.88;6.50;;;12.70;99.90;;;;;;5053168;28;20029;-76
2022/06/14 05:29:08;;;;;;;7.85;7.05;;;12.80;99.90;;;;;;5050345;28;20483;-75
2022/06/14 05:31:46;;;;;;;9.10;7.00;;;12.80;99.90;;;;;;5058795;28;20489;-75
2022/06/14 05:34:27;;;;;;;11.20;6.85;;;12.80;99.90;;;;;;5071135;28;20478;-76
2022/06/14 05:37:00;;;;;;;10.45;6.82;;;13.00;99.90;;;;;;5071173;28;20024;-75
2022/06/14 05:39:31;;;;;;;10.35;6.22;;;13.10;99.90;;;;;;5071057;28;20043;-76
2022/06/14 05:42:05;;;;;;;8.70;6.75;;;13.20;99.90;;;;;;5050852;28;20106;-76
2022/06/14 05:44:37;;;;;;;7.45;5.78;;;13.30;99.90;;;;;;5051401;28;20032;-69
2022/06/14 05:47:18;;;;;;;7.80;4.65;;;13.40;99.90;;;;;;5052312;28;20056;-75
2022/06/14 05:49:52;;;;;;;12.73;5.30;;;13.40;99.90;;;;;;5052408;28;20024;-70
2022/06/14 05:52:32;;;;;;;4.80;4.30;;;13.20;99.90;;;;;;5031698;28;20025;-70
2022/06/14 05:55:17;;;;;;;5.82;4.03;;;13.30;99.90;;;;;;5052030;28;20029;-77
2022/06/14 05:57:51;;;;;;;8.60;4.30;;;13.40;99.90;;;;;;5052551;28;20112;-76
2022/06/14 06:00:55;;;;;;;6.10;4.20;;;13.60;99.90;;;;;;5033432;28;20025;-70
2022/06/14 06:03:35;;;;;;;8.10;4.28;;;13.70;99.90;;;;;;5052474;28;20033;-76
2022/06/14 06:06:10;;;;;;;5.05;4.10;;;13.80;99.90;;;;;;5055453;28;20053;-70
2022/06/14 06:08:43;;;;;;;8.30;3.88;;;13.90;99.90;;;;;;5038178;28;20364;-76
2022/06/14 06:11:38;;;;;;;3.78;3.47;;;13.90;99.90;;;;;;5038220;28;20095;-76
2022/06/14 06:14:24;;;;;;;7.10;3.90;;;14.00;99.90;;;;;;5055812;28;20017;-70
2022/06/14 06:17:03;;;;;;;6.05;3.47;;;14.00;99.90;;;;;;5055931;28;20123;-69
2022/06/14 06:19:47;;;;;;;4.95;3.70;;;13.90;99.90;;;;;;5056065;28;20021;-76
2022/06/14 06:22:29;;;;;;;4.97;3.45;;;14.10;99.90;;;;;;5038001;28;20108;-76
2022/06/14 06:25:09;;;;;;;5.15;3.50;;;14.30;99.90;;;;;;5062575;28;20167;-76
2022/06/14 06:27:44;;;;;;;6.07;3.38;;;14.30;99.90;;;;;;5055877;28;20386;-76
2022/06/14 06:30:23;;;;;;;4.35;3.80;;;14.40;99.90;;;;;;5073568;28;20020;-76
2022/06/14 06:32:49;;;;;;;4.85;3.70;;;14.50;99.90;;;;;;5075749;28;20483;-76
2022/06/14 06:35:15;;;;;;;4.43;3.97;;;14.80;99.90;;;;;;5057676;28;20075;-71
2022/06/14 06:37:48;;;;;;;3.38;3.05;;;15.00;99.90;;;;;;5075673;28;20066;-70
2022/06/14 06:40:22;;;;;;;3.72;2.88;;;14.90;99.90;;;;;;5075560;28;20025;-76
2022/06/14 06:43:02;;;;;;;3.42;3.10;;;14.80;99.90;;;;;;5075440;28;20044;-70
2022/06/14 06:45:30;;;;;;;6.75;2.80;;;14.70;95.10;;;;;;5057511;28;20024;-76
2022/06/14 06:48:07;;;;;;;4.93;3.40;;;15.00;99.90;;;;;;5075385;28;20025;-70
2022/06/14 06:50:49;;;;;;;4.68;3.55;;;15.10;99.90;;;;;;5057514;28;20028;-76
2022/06/14 06:53:29;;;;;;;4.28;3.08;;;15.20;99.90;;;;;;5075353;28;20388;-70
2022/06/14 06:55:59;;;;;;;4.30;3.17;;;15.10;99.90;;;;;;5075193;28;20024;-75
2022/06/14 06:58:43;;;;;;;4.32;3.30;;;15.00;99.90;;;;;;5075292;28;20025;-77
2022/06/14 07:01:16;;;;;;;4.18;3.15;;;15.30;99.90;;;;;;5075180;28;20020;-76
2022/06/14 07:03:54;;;;;;;2.97;2.30;;;15.60;99.90;;;;;;5075027;28;20032;-76
2022/06/14 07:06:26;;;;;;;4.70;3.38;;;15.60;92.00;;;;;;5075264;28;20044;-70
2022/06/14 07:09:03;;;;;;;4.00;2.67;;;15.50;95.30;;;;;;5075279;28;20381;-76
2022/06/14 07:11:40;;;;;;;2.95;2.40;;;15.40;93.10;;;;;;5075067;28;20389;-70
2022/06/14 07:14:13;;;;;;;4.10;2.40;;;15.20;94.60;;;;;;5056411;28;20481;-77
2022/06/14 07:16:57;;;;;;;2.90;2.53;;;15.00;92.20;;;;;;5055712;28;20054;-70
2022/06/14 07:19:53;;;;;;;3.45;2.78;;;15.20;94.60;;;;;;5074930;28;20021;-70
2022/06/14 07:22:55;;;;;;;5.13;2.85;;;15.50;94.10;;;;;;5074897;28;20059;-69
2022/06/14 07:25:30;;;;;;;2.22;2.03;;;15.90;92.60;;;;;;5034096;28;20056;-76
2022/06/14 07:28:07;;;;;;;6.97;2.55;;;15.90;82.60;;;;;;5054449;28;20025;-76
2022/06/14 07:30:46;;;;;;;4.88;2.55;;;16.00;86.30;;;;;;5036637;28;20554;-76
2022/06/14 07:33:13;;;;;;;4.20;2.80;;;15.80;85.40;;;;;;5054600;28;20378;-77
2022/06/14 07:35:51;;;;;;;3.30;2.20;;;15.60;83.10;;;;;;5054429;28;20474;-71
2022/06/14 07:38:37;;;;;;;2.33;1.90;;;15.50;87.40;;;;;;5054465;28;20017;-69
2022/06/14 07:41:12;;;;;;;1.80;1.70;;;15.50;88.10;;;;;;5036757;28;20025;-76
2022/06/14 07:43:40;;;;;;;2.15;1.17;;;15.90;87.00;;;;;;5054443;28;20033;-70
2022/06/14 07:46:14;;;;;;;1.67;1.35;;;15.90;75.80;;;;;;5054293;28;20021;-70
2022/06/14 07:49:03;;;;;;;1.42;1.30;;;15.90;73.70;;;;;;5054298;28;20382;-70
2022/06/14 07:51:46;;;;;;;4.43;1.50;;;16.00;77.50;;;;;;5052963;28;20475;-70
2022/06/14 07:54:23;;;;;;;2.75;1.52;;;15.90;75.20;;;;;;5053878;28;20029;-70
2022/06/14 07:57:05;;;;;;;3.83;1.80;;;15.80;87.00;;;;;;5054151;28;20024;-76
2022/06/14 07:59:41;;;;;;;3.17;1.42;;;15.70;80.40;;;;;;5054050;28;20025;-70
2022/06/14 08:02:30;;;;;;;6.30;1.70;;;15.70;79.30;;;;;;5053595;28;20021;-70
2022/06/14 08:05:13;;;;;;;3.15;1.83;;;16.00;81.90;;;;;;5053253;28;20084;-77
2022/06/14 08:07:40;;;;;;;2.30;1.45;;;16.40;80.90;;;;;;5053844;28;20387;-70
2022/06/14 08:10:09;;;;;;;4.63;1.42;;;16.60;79.70;;;;;;5053642;28;20017;-70
2022/06/14 08:12:45;;;;;;;4.93;1.60;;;16.90;77.40;;;;;;5053156;28;20147;-70
2022/06/14 08:15:31;;;;;;;3.90;1.33;;;16.80;72.80;;;;;;5051510;28;20028;-70
2022/06/14 08:18:10;;;;;;;2.55;1.48;;;16.90;68.50;;;;;;5051580;28;20037;-76
2022/06/14 08:20:49;;;;;;;1.58;1.48;;;17.30;71.70;;;;;;5050693;28;20017;-77
2022/06/14 08:23:21;;;;;;;1.52;1.00;;;17.10;70.40;;;;;;5033886;28;20127;-70
2022/06/14 08:25:50;;;;;;;3.15;1.23;;;16.80;68.80;;;;;;5053142;28;20024;-77
2022/06/14 08:28:39;;;;;;;3.63;1.25;;;16.40;68.80;;;;;;5068684;28;20017;-70
2022/06/14 08:31:17;;;;;;;2.65;1.30;;;16.20;70.00;;;;;;5052738;28;20025;-76
2022/06/14 08:34:08;;;;;;;1.63;1.33;;;16.30;72.70;;;;;;5053418;28;20021;-70
2022/06/14 08:36:53;;;;;;;7.00;1.65;;;16.20;73.70;;;;;;5035650;28;20033;-76
2022/06/14 08:39:28;;;;;;;2.75;1.25;;;16.10;72.60;;;;;;5053341;28;20021;-75
2022/06/14 08:42:02;;;;;;;3.63;1.55;;;16.30;74.90;;;;;;5053435;28;20009;-77
2022/06/14 08:44:47;;;;;;;3.47;1.70;;;16.00;72.20;;;;;;5053068;28;20033;-76
2022/06/14 08:47:50;;;;;;;3.45;1.50;;;16.20;74.80;;;;;;5053373;28;20017;-76
2022/06/14 08:50:34;;;;;;;;;;;16.30;73.50;;;;;;5053651;28;20061;-70
2022/06/14 08:53:32;;;;;;;3.45;1.90;;;16.80;74.20;;;;;;5035412;28;19983;-70
2022/06/14 08:56:20;;;;;;;2.58;1.30;;;17.10;69.40;;;;;;5035902;28;20137;-70
2022/06/14 08:59:12;;;;;;;4.97;1.48;;;17.60;70.90;;;;;;5035363;28;20021;-77
2022/06/14 09:02:21;;;;;;;5.15;1.63;;;17.80;65.40;;;;;;5053139;28;20017;-70
2022/06/14 09:04:55;;;;;;;2.17;1.80;;;17.60;66.90;;;;;;5034933;28;20056;-70
2022/06/14 09:07:50;;;;;;;1.70;1.60;;;17.10;67.20;;;;;;5053221;28;20047;-71
2022/06/14 09:10:32;;;;;;;3.15;1.80;;;16.80;70.40;;;;;;5053206;28;20044;-70
2022/06/14 09:13:18;;;;;;;6.07;1.80;;;16.20;71.30;;;;;;5053153;28;20029;-76
2022/06/14 09:16:17;;;;;;;3.20;1.58;;;16.10;73.00;;;;;;5036157;28;20033;-76
2022/06/14 09:18:49;;;;;;;2.40;1.83;;;15.90;73.20;;;;;;5053023;28;20120;-70
2022/06/14 09:21:38;;;;;;;3.17;1.90;;;16.00;75.80;;;;;;5034993;28;20026;-70
2022/06/14 09:24:10;;;;;;;4.03;1.58;;;16.10;74.10;;;;;;5057892;28;20037;-70
2022/06/14 09:26:45;;;;;;;4.07;1.88;;;16.20;75.40;;;;;;5072906;28;20020;-70
2022/06/14 09:29:41;;;;;;;3.22;1.63;;;16.50;71.30;;;;;;5043938;28;20389;-77
2022/06/14 09:32:30;;;;;;;4.22;1.60;;;16.70;71.10;;;;;;5034776;28;20060;-76
2022/06/14 09:35:34;;;;;;;2.72;1.30;;;16.90;72.70;;;;;;5052896;28;20031;-76
2022/06/14 09:38:08;;;;;;;2.67;1.05;;;16.90;68.90;;;;;;5035759;28;20060;-75
2022/06/14 09:40:59;;;;;;;1.83;1.40;;;16.50;68.20;;;;;;5055389;28;20052;-70
2022/06/14 09:43:49;;;;;;;2.80;1.45;;;16.50;69.40;;;;;;5056230;28;20068;-77
2022/06/14 09:46:30;;;;;;;2.00;1.35;;;16.40;70.10;;;;;;5056547;28;20078;-70
2022/06/14 09:49:33;;;;;;;1.42;1.27;;;16.40;67.00;;;;;;5038756;28;20441;-70
2022/06/14 09:52:07;;;;;;;;;;;16.40;68.20;;;;;;5056867;28;20036;-70
2022/06/14 09:55:03;;;;;;;2.08;1.20;;;16.70;69.20;;;;;;5038443;28;19928;-76
2022/06/14 09:57:56;;;;;;;4.28;1.45;;;16.90;68.40;;;;;;5056386;28;20029;-70
2022/06/14 10:01:00;;;;;;;2.80;1.20;;;17.10;64.70;;;;;;5038439;28;20445;-76
2022/06/14 10:03:50;;;;;;;1.73;1.25;;;17.20;64.80;;;;;;5001430;28;20498;-71
2022/06/14 10:06:37;;;;;;;2.17;1.23;;;17.00;63.80;;;;;;5038417;28;20049;-70
2022/06/14 10:09:13;;;;;;;2.97;1.00;;;16.80;64.70;;;;;;5056346;28;20017;-77
2022/06/14 10:11:47;;;;;;;1.75;1.00;;;16.80;64.30;;;;;;5056205;28;20028;-70
2022/06/14 10:14:37;;;;;;;2.00;1.38;;;16.90;65.10;;;;;;5055894;28;20052;-76
2022/06/14 10:17:08;;;;;;;1.42;1.00;;;16.90;65.20;;;;;;5038096;28;20029;-77
2022/06/14 10:19:45;;;;;;;3.63;1.73;;;16.90;65.30;;;;;;5055980;28;20052;-70
2022/06/14 10:22:32;;;;;;;1.50;1.30;;;17.00;64.90;;;;;;5055821;28;20036;-77
2022/06/14 10:25:10;;;;;;;3.33;1.00;;;17.10;65.60;;;;;;5050874;28;20036;-77
2022/06/14 10:28:12;;;;;;;1.92;1.23;;;17.10;65.40;;;;;;5075731;28;20029;-70
2022/06/14 10:31:09;;;;;;;3.90;1.23;;;17.20;63.30;;;;;;5055777;28;20032;-70
2022/06/14 10:33:54;;;;;;;1.40;1.05;;;17.20;62.90;;;;;;5054456;28;20029;-70
2022/06/14 10:36:31;;;;;;;4.25;1.42;;;17.30;63.70;;;;;;5055657;28;20028;-76
2022/06/14 10:39:18;;;;;;;2.38;1.35;;;17.50;63.40;;;;;;5037613;28;20029;-77
2022/06/14 10:42:02;;;;;;;3.42;1.10;;;17.50;64.20;;;;;;5055399;28;20033;-77
2022/06/14 10:44:37;;;;;;;3.05;1.35;;;17.80;64.80;;;;;;5055313;28;20044;-70
2022/06/14 10:47:25;;;;;;;2.35;1.20;;;18.00;64.80;;;;;;5055458;28;20024;-70
2022/06/14 10:50:16;;;;;;;1.77;1.52;;;18.00;62.80;;;;;;5044910;28;20243;-77
2022/06/14 10:53:09;;;;;;;5.30;1.30;;;18.30;62.00;;;;;;5042775;28;20376;-77
2022/06/14 10:56:07;;;;;;;2.90;1.00;;;18.30;59.80;;;;;;5049882;28;20682;-77
2022/06/14 10:59:03;;;;;;;4.15;1.58;;;18.50;59.70;;;;;;5070280;28;20031;-77
2022/06/14 11:01:47;;;;;;;2.03;1.42;;;18.60;60.20;;;;;;5058445;28;20033;-77
2022/06/14 11:04:24;;;;;;;2.80;1.20;;;18.40;59.10;;;;;;5072473;28;20039;-77
2022/06/14 11:07:11;;;;;;;2.88;1.35;;;18.40;60.60;;;;;;5063923;28;20063;-77
2022/06/14 11:10:10;;;;;;;3.47;1.00;;;18.60;58.40;;;;;;5072898;28;20649;-74
2022/06/14 11:13:15;;;;;;;4.18;1.05;;;18.70;57.70;;;;;;5057678;28;20048;-75
2022/06/14 11:16:06;;;;;;;3.95;1.00;;;18.60;57.20;;;;;;5044898;28;20031;-75
2022/06/14 11:18:52;;;;;;;2.80;1.15;;;19.20;58.40;;;;;;5054387;28;20032;-75
2022/06/14 11:21:28;;;;;;;1.60;1.48;;;18.90;55.00;;;;;;5059603;28;20386;-74
2022/06/14 11:24:10;;;;;;;3.03;1.20;;;18.60;55.60;;;;;;5051167;28;20048;-75
2022/06/14 11:26:47;;;;;;;2.25;1.23;;;18.80;57.20;;;;;;5073360;28;20021;-75
2022/06/14 11:29:35;;;;;;;2.67;1.00;;;18.70;57.30;;;;;;5047592;28;20056;-74
2022/06/14 11:32:29;;;;;;;2.40;1.15;;;18.60;57.30;;;;;;5066879;28;20542;-75
2022/06/14 11:35:17;;;;;;;2.40;1.15;;;18.60;56.20;;;;;;5072821;28;20027;-75
2022/06/14 11:38:33;;;;;;;2.50;1.27;;;18.40;57.00;;;;;;5059972;28;20490;-75
2022/06/14 11:41:05;;;;;;;3.03;1.38;;;18.20;58.30;;;;;;4991485;28;20030;-77
2022/06/14 11:43:57;;;;;;;3.30;1.08;;;18.00;57.50;;;;;;5056903;28;20127;-78
2022/06/14 11:46:41;;;;;;;2.17;1.13;;;17.50;58.00;;;;;;5073141;28;20016;-77
2022/06/14 11:49:11;;;;;;;4.32;1.40;;;17.50;59.50;;;;;;5053706;28;20184;-78
2022/06/14 11:51:59;;;;;;;2.75;1.48;;;17.40;60.50;;;;;;5072965;28;20029;-70
2022/06/14 11:54:39;;;;;;;3.50;1.17;;;17.50;61.00;;;;;;5054363;28;20017;-70
2022/06/14 11:57:35;;;;;;;2.67;1.20;;;17.60;60.40;;;;;;5054779;28;20028;-71
2022/06/14 12:00:11;;;;;;;3.85;1.10;;;17.90;59.50;;;;;;5068108;28;20056;-77
2022/06/14 12:02:37;;;;;;;4.45;1.02;;;18.30;59.40;;;;;;5063598;28;20103;-78
2022/06/14 12:05:23;;;;;;;1.40;0.80;;;18.30;55.90;;;;;;5061237;28;20393;-77
2022/06/14 12:08:11;;;;;;;2.08;1.00;;;18.50;56.50;;;;;;5045362;28;20032;-77
2022/06/14 12:10:49;;;;;;;4.97;1.27;;;18.60;55.60;;;;;;5067636;28;20024;-70
2022/06/14 12:13:44;;;;;;;3.72;1.05;;;18.80;56.00;;;;;;5060289;28;20029;-70
2022/06/14 12:16:21;;;;;;;3.17;1.00;;;18.80;55.50;;;;;;5055318;28;20044;-77
2022/06/14 12:19:05;;;;;;;3.33;1.17;;;18.80;56.40;;;;;;5054689;28;20043;-69
2022/06/14 12:21:38;;;;;;;2.95;1.00;;;18.40;54.20;;;;;;5061743;28;20368;-77
2022/06/14 12:24:11;;;;;;;1.45;0.75;;;18.40;54.60;;;;;;5068658;28;20067;-77
2022/06/14 12:26:59;;;;;;;2.67;0.90;;;18.40;55.40;;;;;;5072514;28;20020;-78
2022/06/14 12:29:33;;;;;;;6.07;1.33;;;18.30;55.10;;;;;;5041832;28;20025;-77
2022/06/14 12:32:13;;;;;;;3.33;1.10;;;18.10;55.60;;;;;;5049780;28;20024;-75
2022/06/14 12:34:57;;;;;;;3.15;1.52;;;18.10;55.80;;;;;;5072148;28;20043;-72
2022/06/14 12:37:38;;;;;;;1.05;0.93;;;18.00;56.10;;;;;;5072127;28;20044;-71
2022/06/14 12:40:07;;;;;;;3.78;1.10;;;17.70;57.20;;;;;;5071693;28;20078;-71
2022/06/14 12:43:00;;;;;;;1.33;1.10;;;17.60;58.10;;;;;;5072008;28;20025;-75
2022/06/14 12:45:54;;;;;;;2.67;1.00;;;17.90;58.90;;;;;;5072027;28;20543;-75
2022/06/14 12:48:22;;;;;;;2.25;1.10;;;18.30;58.30;;;;;;5041633;28;20037;-75
2022/06/14 12:51:12;;;;;;;2.60;1.10;;;18.40;56.00;;;;;;5054348;28;20020;-71
2022/06/14 12:54:03;;;;;;;2.70;1.10;;;18.50;56.50;;;;;;5058293;28;20116;-75
2022/06/14 12:56:58;;;;;;;3.65;1.00;;;18.80;58.10;;;;;;5071900;28;21398;-75
2022/06/14 12:59:44;;;;;;;2.67;1.08;;;18.90;55.60;;;;;;5053503;28;20513;-71
2022/06/14 13:02:29;;;;;;;1.80;0.95;;;18.90;53.50;;;;;;5062149;28;20056;-75
2022/06/14 13:05:19;;;;;;;1.50;1.05;;;19.00;53.20;;;;;;5071518;28;20051;-72
2022/06/14 13:07:57;;;;;;;3.25;1.10;;;18.90;54.20;;;;;;5068074;28;20100;-71
2022/06/14 13:10:49;;;;;;;2.38;0.90;;;19.00;56.80;;;;;;5044736;28;20378;-71
2022/06/14 13:13:39;;;;;;;3.35;0.98;;;19.20;54.00;;;;;;5049534;28;20501;-71
2022/06/14 13:16:05;;;;;;;2.17;0.98;;;19.10;50.40;;;;;;5065192;28;20023;-71
2022/06/14 13:19:00;;;;;;;3.40;1.20;;;19.10;51.80;;;;;;5075418;28;20041;-71
2022/06/14 13:21:38;;;;;;;2.47;0.88;;;19.20;52.30;;;;;;5054136;28;20028;-71
2022/06/14 13:24:32;;;;;;;2.80;0.88;;;19.50;51.30;;;;;;5053917;28;20529;-68
2022/06/14 13:27:27;;;;;;;3.50;0.90;;;19.60;53.70;;;;;;5068737;28;20040;-69
2022/06/14 13:30:17;;;;;;;2.20;0.90;;;19.40;53.40;;;;;;5075617;28;20033;-68
2022/06/14 13:33:12;;;;;;;2.47;0.70;;;19.10;52.60;;;;;;5064568;28;20030;-73
2022/06/14 13:35:53;;;;;;;0.85;0.82;;;19.00;52.50;;;;;;5075361;28;20029;-73
2022/06/14 13:38:40;;;;;;;3.05;0.90;;;18.60;52.20;;;;;;5069636;28;20051;-74
2022/06/14 13:41:25;;;;;;;2.22;1.20;;;18.50;53.20;;;;;;5075791;28;20437;-73
2022/06/14 13:44:03;;;;;;;0.73;0.70;;;18.30;53.00;;;;;;5056275;28;20048;-69
2022/06/14 13:46:39;;;;;;;1.02;0.70;;;18.60;54.60;;;;;;5055360;28;20052;-70
2022/06/14 13:49:15;;;;;;;1.08;0.85;;;18.90;53.40;;;;;;5054497;28;20021;-74
2022/06/14 13:51:59;;;;;;;1.23;0.80;;;19.10;52.20;;;;;;5055218;28;20075;-74
2022/06/14 13:54:43;;;;;;;2.30;1.02;;;19.30;52.20;;;;;;5055881;28;20018;-74
2022/06/14 13:57:39;;;;;;;1.40;1.05;;;19.60;52.90;;;;;;5056502;28;20064;-69
2022/06/14 14:00:29;;;;;;;3.60;1.13;;;19.80;49.90;;;;;;5056359;28;20505;-73
2022/06/14 14:03:16;;;;;;;0.95;0.77;;;19.60;48.80;;;;;;5054995;28;20115;-74